Terminal Aerodrome Forecast
Issued by NWS

Home | Current Version | Previous Version | Text Only | Print | Product List | Glossary On
Versions: 1 2 3 4 5 6 7 8 9 10 11 12 13 14 15 16 17 18 19 20 21
042
FTUS43 KDLH 261720
TAFHIB
TAF
KHIB 261720Z 2618/2718 19009KT P6SM FEW030 SCT050
     FM261930 20009KT P6SM VCTS BKN050CB
      TEMPO 2620/2622 P6SM -SHRA BKN050
     FM262200 23012KT P6SM VCSH BKN050
     FM270200 26009KT P6SM SCT060
     FM270500 VRB03KT P6SM SCT150=

USA.gov is the U.S. government's official web portal to all federal, state and local government web resources and services.